createdAt,value
2023-02-27T00:02:55.986Z,15.15
2023-02-27T00:07:58.944Z,15.13
2023-02-27T00:13:03.147Z,15.37
2023-02-27T00:18:06.066Z,15.31
2023-02-27T00:23:09.544Z,15.19
2023-02-27T00:28:13.975Z,15.28
2023-02-27T00:33:16.854Z,15.17
2023-02-27T00:38:23.016Z,15.40
2023-02-27T00:43:27.619Z,15.30
2023-02-27T00:48:30.524Z,15.25
2023-02-27T00:53:33.398Z,15.37
2023-02-27T00:58:37.600Z,15.54
2023-02-27T01:03:40.457Z,15.46
2023-02-27T01:08:43.281Z,15.32
2023-02-27T01:13:47.437Z,15.34
2023-02-27T01:18:50.854Z,15.43
2023-02-27T01:23:53.698Z,15.51
2023-02-27T01:28:57.895Z,15.30
2023-02-27T01:34:00.836Z,15.38
2023-02-27T01:39:03.845Z,15.38
2023-02-27T01:44:10.114Z,15.18
2023-02-27T01:49:16.192Z,15.61
2023-02-27T01:54:20.977Z,15.47
2023-02-27T01:59:25.266Z,15.54
2023-02-27T02:04:29.762Z,15.54
2023-02-27T02:09:34.274Z,15.48
2023-02-27T02:14:38.457Z,15.51
2023-02-27T02:20:10.318Z,15.43
2023-02-27T02:25:44.703Z,15.41
2023-02-27T02:31:14.774Z,15.63
2023-02-27T02:36:57.840Z,15.52
2023-02-27T02:42:06.695Z,15.39
2023-02-27T02:47:20.310Z,15.31
2023-02-27T02:52:31.983Z,15.49
2023-02-27T02:57:39.499Z,15.38
2023-02-27T03:02:46.594Z,15.37
2023-02-27T03:07:52.048Z,15.36
2023-02-27T03:13:01.394Z,15.61
2023-02-27T03:18:06.970Z,15.39
2023-02-27T03:23:12.653Z,15.33
2023-02-27T03:28:19.805Z,15.54
2023-02-27T03:33:25.806Z,15.42
2023-02-27T03:38:33.371Z,15.46
2023-02-27T03:43:43.294Z,15.48
2023-02-27T03:48:46.870Z,15.15
2023-02-27T03:53:51.893Z,15.17
2023-02-27T03:58:56.212Z,15.31
2023-02-27T04:04:02.033Z,15.48
2023-02-27T04:09:08.205Z,15.37
2023-02-27T04:14:24.773Z,15.33
2023-02-27T04:19:39.644Z,15.31
2023-02-27T04:24:50.806Z,15.31
2023-02-27T04:29:59.815Z,15.39
2023-02-27T04:35:06.084Z,15.33
2023-02-27T04:40:12.185Z,15.30
2023-02-27T04:45:20.138Z,15.32
2023-02-27T04:50:25.796Z,15.50
2023-02-27T04:55:31.600Z,15.47
2023-02-27T05:00:37.246Z,15.33
2023-02-27T05:05:41.740Z,15.42
2023-02-27T05:10:49.827Z,15.47
2023-02-27T05:15:57.442Z,15.23
2023-02-27T05:21:08.285Z,15.46
2023-02-27T05:26:18.081Z,15.38
2023-02-27T05:31:28.248Z,15.28
2023-02-27T05:36:34.690Z,15.32
2023-02-27T05:41:40.486Z,15.35
2023-02-27T05:46:47.750Z,15.25
2023-02-27T05:51:53.228Z,15.36
2023-02-27T05:56:58.475Z,15.37
2023-02-27T06:02:03.390Z,15.27
2023-02-27T06:07:08.438Z,15.27
2023-02-27T06:12:11.434Z,15.21
2023-02-27T06:17:15.630Z,15.17
2023-02-27T06:22:18.516Z,15.23
2023-02-27T06:27:21.397Z,15.27
2023-02-27T06:32:26.053Z,15.15
2023-02-27T06:37:28.882Z,15.22
2023-02-27T06:42:31.690Z,15.28
2023-02-27T06:47:36.048Z,15.17
2023-02-27T06:52:39.252Z,15.10
2023-02-27T06:57:42.962Z,15.25
2023-02-27T07:02:47.142Z,15.25
2023-02-27T07:07:49.978Z,15.13
2023-02-27T07:12:53.702Z,15.24
2023-02-27T07:17:58.283Z,15.15
2023-02-27T07:23:01.161Z,15.22
2023-02-27T07:28:05.061Z,15.16
2023-02-27T07:33:09.519Z,15.25
2023-02-27T07:38:12.303Z,15.25
2023-02-27T07:43:15.266Z,15.33
2023-02-27T07:48:20.339Z,15.63
2023-02-27T07:53:23.310Z,15.19
2023-02-27T07:58:26.219Z,15.42
2023-02-27T08:03:30.415Z,15.36
2023-02-27T08:08:33.228Z,15.37
2023-02-27T08:13:59.512Z,15.74
2023-02-27T08:19:00.470Z,16.05
2023-02-27T08:24:03.838Z,16.46
2023-02-27T08:29:06.685Z,16.79
2023-02-27T08:34:11.122Z,16.86
2023-02-27T08:39:14.418Z,16.37
2023-02-27T08:44:17.351Z,16.43
2023-02-27T08:49:22.938Z,16.09
2023-02-27T08:54:25.811Z,15.44
2023-02-27T08:59:28.637Z,15.53
2023-02-27T09:04:32.927Z,15.61
2023-02-27T09:09:35.986Z,15.12
2023-02-27T09:14:40.034Z,15.33
2023-02-27T09:19:44.251Z,16.09
2023-02-27T09:24:47.121Z,15.79
2023-02-27T09:29:56.115Z,15.75
2023-02-27T09:35:02.121Z,15.91
2023-02-27T09:40:07.143Z,16.85
2023-02-27T09:45:24.455Z,16.16
2023-02-27T09:50:38.512Z,16.76
2023-02-27T09:55:42.581Z,16.60
2023-02-27T10:00:48.195Z,17.48
2023-02-27T10:06:06.226Z,17.70
2023-02-27T10:11:13.532Z,17.17
2023-02-27T10:16:19.932Z,16.40
2023-02-27T10:21:28.785Z,16.83
2023-02-27T10:26:35.421Z,17.16
2023-02-27T10:31:38.558Z,16.50
2023-02-27T10:36:42.941Z,16.55
2023-02-27T10:41:46.563Z,16.44
2023-02-27T10:46:51.779Z,16.60
2023-02-27T10:52:11.184Z,16.21
2023-02-27T10:57:27.252Z,16.09
2023-02-27T11:02:36.075Z,15.94
2023-02-27T11:07:40.518Z,16.11
2023-02-27T11:12:45.960Z,16.50
2023-02-27T11:17:48.771Z,16.26
2023-02-27T11:23:03.522Z,16.38
2023-02-27T11:28:14.919Z,16.33
2023-02-27T11:33:20.733Z,16.35
2023-02-27T11:38:27.101Z,16.62
2023-02-27T11:43:32.624Z,16.85
2023-02-27T11:48:38.324Z,16.86
2023-02-27T11:54:16.432Z,16.71
2023-02-27T11:59:29.024Z,16.65
2023-02-27T12:04:43.000Z,16.46
2023-02-27T12:09:50.146Z,16.75
2023-02-27T12:15:05.950Z,16.29
2023-02-27T12:20:24.018Z,16.56
2023-02-27T12:25:34.544Z,16.22
2023-02-27T12:30:43.301Z,16.43
2023-02-27T12:35:48.274Z,16.49
2023-02-27T12:40:59.659Z,16.72
2023-02-27T12:46:38.529Z,16.94
2023-02-27T12:51:51.151Z,16.55
2023-02-27T12:57:03.662Z,16.65
2023-02-27T13:02:18.771Z,16.37
2023-02-27T13:07:26.869Z,16.54
2023-02-27T13:12:35.653Z,16.28
2023-02-27T13:17:41.219Z,16.57
2023-02-27T13:22:51.363Z,16.13
2023-02-27T13:27:58.312Z,16.42
2023-02-27T13:33:07.083Z,16.19
2023-02-27T13:38:33.081Z,16.52
2023-02-27T13:43:51.120Z,16.33
2023-02-27T13:48:55.382Z,16.54
2023-02-27T13:54:16.418Z,16.20
2023-02-27T13:59:23.657Z,16.21
2023-02-27T14:04:32.433Z,16.46
2023-02-27T14:09:38.566Z,16.21
2023-02-27T14:14:45.505Z,16.24
2023-02-27T14:19:59.816Z,16.37
2023-02-27T14:25:12.553Z,16.77
2023-02-27T14:30:27.011Z,16.30
2023-02-27T14:35:30.445Z,16.40
2023-02-27T14:40:39.202Z,16.55
2023-02-27T14:45:42.505Z,16.43
2023-02-27T14:50:45.780Z,16.78
2023-02-27T14:55:56.152Z,16.70
2023-02-27T15:01:05.367Z,16.79
2023-02-27T15:06:16.051Z,17.36
2023-02-27T15:11:23.047Z,16.98
2023-02-27T15:16:39.224Z,16.94
2023-02-27T15:21:44.592Z,16.62
2023-02-27T15:26:52.688Z,16.45
2023-02-27T15:31:56.386Z,16.70
2023-02-27T15:37:01.064Z,16.46
2023-02-27T15:42:06.926Z,16.70
2023-02-27T15:47:12.725Z,16.39
2023-02-27T15:52:21.046Z,15.96
2023-02-27T15:57:26.212Z,17.07
2023-02-27T16:02:31.798Z,17.37
2023-02-27T16:07:40.452Z,17.26
2023-02-27T16:12:46.484Z,17.15
2023-02-27T16:17:58.018Z,17.90
2023-02-27T16:23:05.801Z,17.34
2023-02-27T16:28:14.719Z,17.22
2023-02-27T16:33:24.371Z,17.38
2023-02-27T16:38:28.074Z,17.02
2023-02-27T16:43:33.674Z,16.92
2023-02-27T16:48:37.556Z,16.81
2023-02-27T16:53:41.186Z,17.07
2023-02-27T16:58:46.352Z,17.01
2023-02-27T17:03:49.966Z,16.72
2023-02-27T17:08:54.141Z,16.79
2023-02-27T17:13:59.574Z,16.94
2023-02-27T17:19:03.223Z,17.09
2023-02-27T17:24:07.446Z,16.97
2023-02-27T17:29:12.544Z,17.05
2023-02-27T17:34:17.024Z,16.97
2023-02-27T17:39:20.628Z,16.89
2023-02-27T17:44:26.492Z,16.87
2023-02-27T17:49:30.104Z,17.04
2023-02-27T17:54:34.288Z,17.30
2023-02-27T17:59:40.317Z,17.33
2023-02-27T18:04:44.225Z,17.31
2023-02-27T18:09:47.827Z,17.12
2023-02-27T18:14:52.894Z,17.11
2023-02-27T18:19:58.194Z,17.42
2023-02-27T18:25:01.892Z,17.32
2023-02-27T18:30:08.213Z,17.28
2023-02-27T18:35:11.854Z,17.35
2023-02-27T18:40:16.313Z,17.36
2023-02-27T18:45:21.629Z,17.39
2023-02-27T18:50:25.728Z,17.31
2023-02-27T18:55:29.525Z,17.22
2023-02-27T19:00:34.688Z,17.37
2023-02-27T19:05:41.829Z,17.22
2023-02-27T19:10:45.789Z,17.19
2023-02-27T19:15:50.871Z,17.31
2023-02-27T19:20:55.848Z,17.26
2023-02-27T19:26:01.166Z,17.19
2023-02-27T19:31:09.511Z,17.40
2023-02-27T19:36:14.960Z,17.29
2023-02-27T19:41:19.472Z,17.40
2023-02-27T19:46:27.634Z,17.30
2023-02-27T19:51:31.712Z,17.36
2023-02-27T19:56:35.402Z,17.32
2023-02-27T20:01:40.988Z,17.30
2023-02-27T20:06:46.313Z,17.22
2023-02-27T20:11:52.799Z,17.35
2023-02-27T20:16:57.934Z,17.15
2023-02-27T20:22:01.751Z,17.28
2023-02-27T20:27:05.548Z,17.32
2023-02-27T20:32:10.732Z,17.23
2023-02-27T20:37:14.453Z,17.28
2023-02-27T20:42:18.126Z,17.30
2023-02-27T20:47:23.229Z,17.20
2023-02-27T20:52:27.535Z,17.03
2023-02-27T20:57:31.241Z,17.22
2023-02-27T21:02:36.340Z,17.27
2023-02-27T21:07:40.034Z,17.38
2023-02-27T21:12:45.213Z,17.29
2023-02-27T21:17:50.246Z,17.47
2023-02-27T21:22:55.928Z,17.22
2023-02-27T21:28:03.381Z,17.13
2023-02-27T21:33:08.863Z,17.16
2023-02-27T21:38:12.463Z,17.21
2023-02-27T21:43:16.153Z,17.21
2023-02-27T21:48:21.252Z,17.32
2023-02-27T21:53:24.848Z,17.25
2023-02-27T21:58:28.505Z,17.26
2023-02-27T22:03:35.491Z,17.32
2023-02-27T22:08:39.965Z,17.42
2023-02-27T22:13:43.616Z,17.32
2023-02-27T22:18:49.426Z,17.22
2023-02-27T22:23:53.226Z,17.21
2023-02-27T22:28:57.708Z,17.14
2023-02-27T22:34:05.793Z,17.12
2023-02-27T22:39:09.529Z,17.27
2023-02-27T22:44:14.968Z,17.33
2023-02-27T22:49:22.349Z,17.27
2023-02-27T22:54:25.972Z,17.21
2023-02-27T22:59:29.823Z,17.38
2023-02-27T23:04:34.905Z,17.30
2023-02-27T23:09:38.539Z,17.15
2023-02-27T23:14:42.204Z,17.24
2023-02-27T23:19:47.345Z,17.10
2023-02-27T23:24:50.970Z,17.10
2023-02-27T23:29:54.619Z,17.11
2023-02-27T23:35:00.183Z,17.11
2023-02-27T23:40:06.799Z,16.97
2023-02-27T23:45:11.434Z,17.18
2023-02-27T23:50:16.503Z,17.10
2023-02-27T23:55:21.333Z,16.98
